Time;durP1;ratioP1;P1;durP2;ratioP2;P2;SDS_P1;SDS_P2;PMS_P1;PMS_P2;Temp;Humidity;BMP_temperature;BMP_pressure;BME280_temperature;BME280_humidity;BME280_pressure;Samples;Min_cycle;Max_cycle;Signal;HPM_P1;HPM_P2
2022/03/20 16:56:10;;;;;;;19.90;15.73;;;;;;;12.99;35.51;101553.13;5166129;27;20559;-67
2022/03/20 16:58:37;;;;;;;22.10;17.73;;;;;;;13.10;34.86;101552.25;5178590;27;20984;-68
2022/03/20 17:01:03;;;;;;;20.90;16.47;;;;;;;13.16;34.94;101557.13;5162562;27;21005;-68
2022/03/20 17:03:30;;;;;;;22.53;16.43;;;;;;;13.19;34.72;101561.41;5164303;27;20490;-68
2022/03/20 17:05:57;;;;;;;21.60;17.00;;;;;;;13.27;34.94;101550.88;5167409;27;20512;-79
2022/03/20 17:08:23;;;;;;;21.43;17.13;;;;;;;13.25;34.67;101560.06;5145991;27;20440;-70
2022/03/20 17:10:50;;;;;;;22.57;16.30;;;;;;;13.11;34.81;101556.66;5137623;27;20823;-69
2022/03/20 17:13:19;;;;;;;25.03;16.20;;;;;;;13.25;34.40;101562.75;5146077;27;20474;-71
2022/03/20 17:15:45;;;;;;;22.27;17.20;;;;;;;13.24;34.80;101566.41;5159056;27;20435;-70
2022/03/20 17:18:12;;;;;;;25.30;16.90;;;;;;;13.16;34.87;101562.50;5155844;27;20444;-70
2022/03/20 17:20:39;;;;;;;22.33;17.00;;;;;;;13.24;34.38;101572.63;5138121;28;20443;-70
2022/03/20 17:23:06;;;;;;;21.43;16.90;;;;;;;13.25;34.52;101568.13;5141083;27;20453;-71
2022/03/20 17:25:33;;;;;;;26.43;19.00;;;;;;;13.33;35.31;101571.03;5137868;28;20469;-70
2022/03/20 17:28:05;;;;;;;20.17;15.73;;;;;;;13.22;34.71;101571.06;5138164;27;20462;-71
2022/03/20 17:30:35;;;;;;;20.27;15.80;;;;;;;13.16;34.76;101575.09;5151467;27;20461;-71
2022/03/20 17:33:02;;;;;;;29.43;18.70;;;;;;;13.10;34.89;101576.41;5151367;27;20885;-70
2022/03/20 17:35:29;;;;;;;23.90;19.10;;;;;;;13.11;35.12;101582.66;5158616;27;20424;-70
2022/03/20 17:37:56;;;;;;;24.53;18.10;;;;;;;13.06;35.25;101574.13;5143563;27;20453;-70
2022/03/20 17:40:23;;;;;;;20.57;16.37;;;;;;;13.07;35.47;101581.19;5137127;28;21026;-70
2022/03/20 17:42:52;;;;;;;21.97;17.30;;;;;;;12.96;35.51;101585.59;5137706;27;20452;-70
2022/03/20 17:45:19;;;;;;;23.27;17.17;;;;;;;13.02;35.36;101592.31;5137078;27;20491;-73
2022/03/20 17:47:47;;;;;;;30.63;22.50;;;;;;;13.04;35.29;101587.69;5133124;28;20453;-67
2022/03/20 17:50:14;;;;;;;23.37;15.90;;;;;;;13.06;35.13;101600.97;5136468;27;20936;-71
2022/03/20 17:52:41;;;;;;;27.90;20.90;;;;;;;13.12;35.18;101595.09;5131233;28;20445;-71
2022/03/20 17:55:08;;;;;;;29.17;23.03;;;;;;;13.07;35.67;101606.22;5136330;28;20476;-72
2022/03/20 17:57:35;;;;;;;31.43;22.57;;;;;;;13.09;35.79;101601.59;5141686;27;20486;-71
2022/03/20 18:00:04;;;;;;;21.37;16.93;;;;;;;13.06;36.10;101600.97;5156035;27;20467;-71
2022/03/20 18:08:00;;;;;;;25.07;18.10;;;;;;;12.80;36.29;101607.44;5068722;28;20516;-71
2022/03/20 18:10:30;;;;;;;24.23;19.00;;;;;;;12.86;36.26;101592.66;5080724;28;20452;-72
2022/03/20 18:12:58;;;;;;;22.73;18.60;;;;;;;12.75;35.67;101598.06;5085443;28;20457;-74
2022/03/20 18:15:26;;;;;;;23.10;19.40;;;;;;;12.73;36.07;101603.53;5075021;28;20524;-71
2022/03/20 18:17:53;;;;;;;28.27;22.17;;;;;;;12.84;36.11;101608.06;5082247;28;20443;-69
2022/03/20 18:20:23;;;;;;;23.37;19.17;;;;;;;12.88;36.06;101600.59;5070287;28;20481;-69
2022/03/20 18:22:51;;;;;;;22.20;17.73;;;;;;;12.75;35.83;101606.94;5075054;28;20539;-70
2022/03/20 18:25:20;;;;;;;24.60;18.00;;;;;;;12.77;35.91;101607.69;5081932;28;20560;-69
2022/03/20 18:27:47;;;;;;;26.20;18.23;;;;;;;12.75;35.40;101595.38;5075601;28;20449;-71
2022/03/20 18:30:15;;;;;;;22.27;16.93;;;;;;;12.71;35.51;101621.59;5078071;28;20591;-70
2022/03/20 18:32:43;;;;;;;21.70;17.97;;;;;;;12.79;35.06;101623.66;5078098;28;20478;-70
2022/03/20 18:35:11;;;;;;;20.20;17.33;;;;;;;12.89;35.57;101618.44;5081047;28;20444;-69
2022/03/20 18:37:40;;;;;;;21.73;17.00;;;;;;;12.80;35.12;101625.38;5081193;28;20483;-70
2022/03/20 18:40:09;;;;;;;19.60;14.80;;;;;;;12.84;35.47;101626.00;5080779;28;20451;-71
2022/03/20 18:42:36;;;;;;;23.00;16.97;;;;;;;12.68;35.33;101619.16;5081284;28;20448;-70
2022/03/20 18:45:04;;;;;;;19.97;16.03;;;;;;;12.65;35.46;101630.13;5081511;28;20525;-70
2022/03/20 18:47:31;;;;;;;20.17;16.07;;;;;;;12.71;35.83;101631.50;5078622;28;20476;-72
2022/03/20 18:49:58;;;;;;;19.10;16.60;;;;;;;12.60;35.60;101627.81;5081265;28;20452;-71
2022/03/20 18:52:25;;;;;;;25.20;18.83;;;;;;;12.57;35.41;101636.09;5079248;28;20479;-70
2022/03/20 18:54:53;;;;;;;30.40;23.50;;;;;;;12.55;35.78;101627.31;5081304;28;20575;-71
2022/03/20 18:57:19;;;;;;;25.27;18.80;;;;;;;12.53;35.87;101636.44;5058671;28;20974;-71
2022/03/20 18:59:46;;;;;;;21.73;16.77;;;;;;;12.46;35.88;101625.31;5064130;28;20487;-71
2022/03/20 19:02:15;;;;;;;21.60;17.10;;;;;;;12.57;35.81;101632.56;5060591;28;20480;-71
2022/03/20 19:04:42;;;;;;;23.80;18.00;;;;;;;12.40;35.49;101637.41;5060995;28;20472;-71
2022/03/20 19:07:09;;;;;;;19.93;14.27;;;;;;;12.44;35.79;101633.50;5054446;28;20534;-70
2022/03/20 19:09:37;;;;;;;19.53;16.50;;;;;;;12.48;35.52;101644.88;5061190;28;20445;-69
2022/03/20 19:12:06;;;;;;;20.37;15.90;;;;;;;12.54;35.59;101641.69;5067188;28;20487;-70
2022/03/20 19:14:33;;;;;;;20.50;15.90;;;;;;;12.39;35.75;101641.06;5071155;28;20450;-69
2022/03/20 19:17:02;;;;;;;22.03;16.37;;;;;;;12.52;35.77;101643.66;5075651;28;20526;-71
2022/03/20 19:19:28;;;;;;;20.07;15.70;;;;;;;12.48;35.79;101642.19;5086844;28;20447;-70
2022/03/20 19:21:55;;;;;;;21.53;15.90;;;;;;;12.42;35.54;101648.00;5075609;28;20724;-71
2022/03/20 19:24:23;;;;;;;18.47;14.67;;;;;;;12.45;35.42;101637.06;5062312;28;20517;-70
2022/03/20 19:26:49;;;;;;;22.20;15.90;;;;;;;12.40;35.75;101648.13;5063389;28;20494;-71
2022/03/20 19:29:18;;;;;;;19.00;16.30;;;;;;;12.53;35.64;101650.69;5063613;28;20436;-71
2022/03/20 19:31:45;;;;;;;18.30;15.40;;;;;;;12.40;35.53;101660.69;5064051;28;20518;-71
2022/03/20 19:39:55;;;;;;;16.80;14.50;;;;;;;12.40;35.81;101653.50;5053679;28;20472;-71
2022/03/20 19:42:22;;;;;;;18.97;15.00;;;;;;;12.46;36.00;101664.72;5085664;28;20519;-68
2022/03/20 19:44:50;;;;;;;17.30;14.33;;;;;;;12.36;36.25;101665.44;5078554;28;20542;-68
2022/03/20 19:47:18;;;;;;;21.40;16.30;;;;;;;12.47;36.14;101661.06;5089222;28;20479;-67
2022/03/20 19:49:45;;;;;;;18.70;15.30;;;;;;;12.46;36.49;101657.50;5076963;28;20949;-67
2022/03/20 19:52:13;;;;;;;20.20;15.27;;;;;;;12.43;36.64;101671.19;5060693;28;20477;-68
2022/03/20 19:54:40;;;;;;;19.70;14.30;;;;;;;12.46;36.19;101656.66;5079865;28;20500;-69
2022/03/20 19:57:07;;;;;;;20.90;15.53;;;;;;;12.34;36.86;101671.88;5079333;28;20699;-69
2022/03/20 19:59:34;;;;;;;22.50;14.97;;;;;;;12.39;36.61;101662.53;5076532;28;20509;-69
2022/03/20 20:02:03;;;;;;;20.33;14.93;;;;;;;12.29;36.93;101661.53;5078918;28;20472;-68
2022/03/20 20:04:30;;;;;;;19.47;15.03;;;;;;;12.32;36.78;101668.47;5079556;28;20436;-68
2022/03/20 20:06:57;;;;;;;17.27;14.00;;;;;;;12.31;36.87;101662.25;5078900;28;20471;-69
2022/03/20 20:09:24;;;;;;;22.27;15.17;;;;;;;12.18;37.44;101661.47;5080453;28;20432;-69
2022/03/20 20:11:52;;;;;;;18.27;14.13;;;;;;;12.12;37.47;101662.78;5078903;28;20479;-69
2022/03/20 20:17:08;;;;;;;20.50;18.03;;;;;;;11.99;37.02;101672.72;5079810;28;20470;-68
2022/03/20 20:19:35;;;;;;;18.70;13.90;;;;;;;11.99;37.41;101667.34;5079351;28;20461;-68
2022/03/20 20:22:02;;;;;;;19.80;16.07;;;;;;;11.98;37.43;101669.19;5085005;28;20551;-69
2022/03/20 20:24:29;;;;;;;21.30;15.30;;;;;;;11.78;37.34;101667.09;5079330;28;20432;-69
2022/03/20 20:26:56;;;;;;;15.87;13.50;;;;;;;11.77;37.15;101668.06;5078877;28;20484;-69
2022/03/20 20:29:24;;;;;;;19.87;15.10;;;;;;;11.61;37.52;101668.34;5080093;28;20490;-68
2022/03/20 20:31:51;;;;;;;39.00;26.63;;;;;;;11.44;38.20;101672.25;5067710;28;20472;-69
2022/03/20 20:34:20;;;;;;;31.30;22.57;;;;;;;11.36;37.83;101667.44;5079269;28;20443;-69
2022/03/20 20:36:47;;;;;;;18.53;15.03;;;;;;;11.39;38.05;101671.75;5077981;28;20471;-68
2022/03/20 20:39:14;;;;;;;18.60;15.77;;;;;;;11.23;37.76;101671.97;5079181;28;20447;-69
2022/03/20 20:41:41;;;;;;;18.67;14.30;;;;;;;11.12;37.98;101675.41;5078286;28;20508;-69
2022/03/20 20:44:08;;;;;;;18.27;14.67;;;;;;;11.16;38.28;101679.56;5079319;28;20455;-68
2022/03/20 20:46:35;;;;;;;21.67;15.77;;;;;;;11.05;38.17;101680.34;5078968;28;20508;-68
2022/03/20 20:49:02;;;;;;;21.20;15.10;;;;;;;11.04;38.44;101678.66;5079254;28;20436;-67
2022/03/20 20:51:31;;;;;;;22.07;16.20;;;;;;;11.06;38.41;101684.75;5051225;28;20634;-68
2022/03/20 20:53:57;;;;;;;20.23;15.63;;;;;;;10.91;38.25;101689.34;5044372;28;21043;-68
2022/03/20 20:56:24;;;;;;;22.00;14.87;;;;;;;10.97;38.36;101682.72;5075437;28;20525;-68
2022/03/20 20:58:51;;;;;;;21.50;14.97;;;;;;;10.80;38.58;101683.03;5080951;28;20455;-68
2022/03/20 21:01:19;;;;;;;16.50;13.47;;;;;;;10.79;38.48;101678.66;5086748;28;21036;-69
2022/03/20 21:03:47;;;;;;;18.57;14.40;;;;;;;10.81;38.28;101685.59;5079614;28;20499;-68
2022/03/20 21:06:14;;;;;;;17.93;13.37;;;;;;;10.77;38.72;101678.75;5079555;28;20518;-69
2022/03/20 21:11:26;;;;;;;18.80;14.90;;;;;;;10.70;39.03;101686.34;5058853;28;20571;-68
2022/03/20 21:13:53;;;;;;;23.10;14.43;;;;;;;10.60;38.94;101690.63;5063422;28;20874;-69
2022/03/20 21:16:20;;;;;;;17.60;14.13;;;;;;;10.49;39.29;101680.66;5058846;28;20476;-68
2022/03/20 21:18:47;;;;;;;19.10;13.90;;;;;;;10.47;39.38;101684.41;5068784;28;20455;-69
2022/03/20 21:21:16;;;;;;;17.77;13.80;;;;;;;10.45;39.74;101697.88;5078231;28;20487;-69
2022/03/20 21:23:44;;;;;;;18.13;14.07;;;;;;;10.29;40.00;101690.00;5071138;28;20456;-68
2022/03/20 21:26:11;;;;;;;19.80;15.20;;;;;;;10.37;39.64;101697.53;5059107;28;20546;-68
2022/03/20 21:28:38;;;;;;;18.10;14.90;;;;;;;10.35;39.60;101702.13;5064056;28;20463;-68
2022/03/20 21:31:05;;;;;;;19.37;14.43;;;;;;;10.35;39.95;101699.47;5078324;28;21017;-68
2022/03/20 21:33:32;;;;;;;17.23;13.03;;;;;;;10.20;39.95;101697.78;5079054;28;20451;-69
2022/03/20 21:35:59;;;;;;;21.07;14.07;;;;;;;10.21;40.10;101695.03;5079530;28;20487;-68
2022/03/20 21:38:26;;;;;;;18.40;14.03;;;;;;;10.17;40.10;101697.03;5077595;28;20475;-67
2022/03/20 21:40:54;;;;;;;18.03;14.07;;;;;;;10.17;40.19;101698.84;5080053;28;20476;-68
2022/03/20 21:43:21;;;;;;;18.07;14.20;;;;;;;10.14;40.27;101701.72;5083101;28;20463;-68
2022/03/20 21:45:47;;;;;;;19.17;13.87;;;;;;;10.07;40.44;101695.94;5068372;28;20839;-67
2022/03/20 21:48:18;;;;;;;19.60;14.47;;;;;;;10.04;40.42;101696.13;5068339;28;20451;-67
2022/03/20 21:50:45;;;;;;;19.40;13.80;;;;;;;10.10;40.08;101698.41;5083622;28;20464;-67
2022/03/20 21:53:12;;;;;;;20.27;15.13;;;;;;;10.07;40.25;101695.94;5079562;28;20445;-66
2022/03/20 21:55:38;;;;;;;18.60;14.10;;;;;;;10.01;40.50;101700.81;5068109;28;20472;-67
2022/03/20 21:58:08;;;;;;;19.23;14.07;;;;;;;9.96;40.42;101693.09;5066112;28;20547;-71
2022/03/20 22:00:35;;;;;;;18.73;14.30;;;;;;;9.96;40.56;101699.31;5067425;28;20537;-67
2022/03/20 22:03:02;;;;;;;22.57;13.97;;;;;;;9.96;40.48;101695.78;5074770;28;20477;-67
2022/03/20 22:05:29;;;;;;;19.13;14.67;;;;;;;9.98;40.32;101693.84;5083544;28;20471;-67
2022/03/20 22:07:56;;;;;;;17.30;12.97;;;;;;;9.95;40.75;101691.41;5083290;28;20555;-67
2022/03/20 22:10:23;;;;;;;20.40;14.40;;;;;;;9.99;40.26;101692.91;5066487;28;20463;-68
2022/03/20 22:12:50;;;;;;;20.50;15.67;;;;;;;10.07;40.74;101703.06;5077396;28;20893;-67
2022/03/20 22:15:18;;;;;;;19.90;15.20;;;;;;;9.92;40.62;101697.78;5065076;28;20437;-68
2022/03/20 22:17:45;;;;;;;16.23;14.47;;;;;;;10.01;40.10;101703.50;5063218;28;20471;-67
2022/03/20 22:20:13;;;;;;;17.87;13.57;;;;;;;10.10;40.38;101703.75;5076956;28;20475;-67
2022/03/20 22:22:42;;;;;;;18.47;13.70;;;;;;;10.10;40.06;101708.22;5081608;28;20456;-67
2022/03/20 22:25:10;;;;;;;18.53;13.73;;;;;;;10.07;40.01;101703.94;5042837;28;20427;-68
2022/03/20 22:27:39;;;;;;;19.67;14.47;;;;;;;10.08;40.22;101699.47;5067475;28;20433;-68
2022/03/20 22:30:07;;;;;;;17.67;13.80;;;;;;;10.04;40.11;101703.31;5071584;28;20452;-67
2022/03/20 22:32:36;;;;;;;17.17;13.30;;;;;;;10.01;40.20;101704.34;5064034;28;20469;-68
2022/03/20 22:37:49;;;;;;;17.93;13.73;;;;;;;9.88;40.35;101719.47;5099628;28;20863;-68
2022/03/20 22:40:17;;;;;;;18.17;13.23;;;;;;;9.87;40.30;101721.28;5087575;28;20910;-69
2022/03/20 22:42:45;;;;;;;15.50;13.43;;;;;;;9.95;39.71;101731.47;5087258;28;20492;-68
2022/03/20 22:45:12;;;;;;;19.20;13.73;;;;;;;9.97;40.28;101724.22;5092636;28;20512;-67
2022/03/20 22:47:40;;;;;;;16.30;12.83;;;;;;;9.95;39.99;101726.13;5089376;28;20494;-69
2022/03/20 22:50:11;;;;;;;18.10;13.03;;;;;;;9.96;40.15;101730.50;5082427;28;20452;-69
2022/03/20 22:52:39;;;;;;;21.60;14.40;;;;;;;9.86;40.16;101732.94;5101474;28;20490;-69
2022/03/20 22:55:08;;;;;;;17.03;14.13;;;;;;;9.82;39.90;101733.22;5087076;28;20512;-68
2022/03/20 22:57:38;;;;;;;15.30;12.57;;;;;;;9.96;40.23;101738.53;5102422;28;20463;-67
2022/03/20 23:00:16;;;;;;;19.00;12.53;;;;;;;9.96;40.17;101734.06;5102126;28;20443;-67
2022/03/20 23:02:44;;;;;;;16.23;13.17;;;;;;;10.00;39.82;101742.72;5102234;28;20482;-66
2022/03/20 23:05:10;;;;;;;18.73;13.50;;;;;;;10.05;39.52;101743.28;5083041;28;20441;-67
2022/03/20 23:07:37;;;;;;;19.03;13.17;;;;;;;10.06;40.17;101736.13;5088582;28;20475;-68
2022/03/20 23:10:05;;;;;;;18.53;12.63;;;;;;;9.86;40.65;101742.75;5098129;28;20481;-69
2022/03/20 23:12:32;;;;;;;16.87;13.70;;;;;;;9.79;42.04;101745.84;5081956;28;20527;-67
2022/03/20 23:14:59;;;;;;;17.70;14.60;;;;;;;9.71;42.68;101745.47;5079209;28;20566;-67
2022/03/20 23:17:25;;;;;;;22.20;15.00;;;;;;;9.57;42.90;101742.81;5062171;28;20473;-67
2022/03/20 23:19:53;;;;;;;19.87;13.30;;;;;;;9.41;42.88;101754.47;5062983;28;20425;-67
2022/03/20 23:22:20;;;;;;;16.70;14.00;;;;;;;9.47;43.31;101755.88;5080962;28;20487;-67
2022/03/20 23:24:47;;;;;;;16.97;14.27;;;;;;;9.38;43.31;101761.81;5083137;28;20498;-67
2022/03/20 23:27:15;;;;;;;18.50;14.73;;;;;;;9.36;42.85;101766.38;5076798;28;20477;-67
2022/03/20 23:29:42;;;;;;;22.07;14.17;;;;;;;9.31;43.08;101766.66;5062366;28;20953;-67
2022/03/20 23:32:10;;;;;;;16.83;13.00;;;;;;;9.43;42.21;101763.22;5060505;28;20484;-67
2022/03/20 23:34:38;;;;;;;16.30;13.10;;;;;;;9.43;43.28;101760.56;5061908;28;21026;-66
2022/03/20 23:37:06;;;;;;;15.13;12.60;;;;;;;9.47;41.70;101760.38;5062588;28;20472;-67
2022/03/20 23:39:33;;;;;;;16.50;14.10;;;;;;;9.45;41.60;101749.78;5077300;28;21052;-66
2022/03/20 23:44:44;;;;;;;14.60;12.53;;;;;;;9.63;41.09;101763.78;5081654;28;20407;-67
2022/03/20 23:47:10;;;;;;;17.57;12.70;;;;;;;9.53;41.30;101767.97;5079344;28;20507;-67
2022/03/20 23:49:37;;;;;;;17.17;13.27;;;;;;;9.47;41.62;101763.88;5080458;28;20462;-68
2022/03/20 23:52:04;;;;;;;16.30;12.40;;;;;;;9.57;40.80;101766.84;5061872;28;20491;-68
2022/03/20 23:54:32;;;;;;;18.97;13.23;;;;;;;9.65;41.09;101764.53;5072059;28;20491;-67
2022/03/20 23:56:59;;;;;;;17.37;12.70;;;;;;;9.68;40.80;101769.69;5077605;28;20480;-67
2022/03/20 23:59:27;;;;;;;18.87;13.97;;;;;;;9.57;41.08;101759.69;5073934;28;20464;-67
